Terminal Aerodrome Forecast
Issued by NWS

Home | Current Version | Previous Version | Text Only | Print | Product List | Glossary On
Versions: 1 2 3 4 5 6 7 8 9 10 11 12 13 14 15 16 17 18 19 20 21 22 23 24 25 26
000
FTUS44 KBMX 261141
TAFTOI
TAF
KTOI 261141Z 2612/2712 00000KT P6SM BKN060
     FM261700 16008KT P6SM -SHRA VCTS BKN009 OVC015CB
      TEMPO 2618/2620 2SM +TSRA SCT009 BKN015CB
     FM262200 21008KT P6SM VCSH SCT025 BKN050
     FM271000 07003KT 4SM BR OVC004=

USA.gov is the U.S. government's official web portal to all federal, state and local government web resources and services.